createdAt,value
2023-03-27T00:05:27.233Z,17.6
2023-03-27T00:11:32.223Z,17.5
2023-03-27T00:17:37.608Z,17.5
2023-03-27T00:23:43.360Z,17.5
2023-03-27T00:29:48.304Z,17.5
2023-03-27T00:35:53.829Z,17.5
2023-03-27T00:41:59.565Z,17.5
2023-03-27T00:48:05.021Z,17.5
2023-03-27T00:54:10.950Z,17.5
2023-03-27T01:00:16.119Z,17.4
2023-03-27T01:06:21.860Z,17.4
2023-03-27T01:12:26.886Z,17.4
2023-03-27T01:18:32.476Z,17.4
2023-03-27T01:24:37.811Z,17.4
2023-03-27T01:30:43.400Z,17.4
2023-03-27T01:36:48.911Z,17.4
2023-03-27T01:42:53.911Z,17.4
2023-03-27T01:48:59.087Z,17.3
2023-03-27T01:55:04.235Z,17.3
2023-03-27T02:01:09.626Z,17.3
2023-03-27T02:07:15.595Z,17.3
2023-03-27T02:13:20.943Z,17.3
2023-03-27T02:19:26.679Z,17.3
2023-03-27T02:25:33.089Z,17.2
2023-03-27T02:31:38.709Z,17.2
2023-03-27T02:37:44.267Z,17.2
2023-03-27T02:43:50.239Z,17.2
2023-03-27T02:49:55.633Z,17.2
2023-03-27T02:56:01.635Z,17.2
2023-03-27T03:02:07.290Z,17.1
2023-03-27T03:08:12.763Z,17.1
2023-03-27T03:14:18.726Z,17.1
2023-03-27T03:20:24.493Z,17.1
2023-03-27T03:26:30.286Z,17.1
2023-03-27T03:32:35.457Z,17.1
2023-03-27T03:38:40.563Z,17.1
2023-03-27T03:44:46.382Z,17.1
2023-03-27T03:50:51.723Z,17
2023-03-27T03:56:58.167Z,17
2023-03-27T04:03:03.897Z,17
2023-03-27T04:09:10.098Z,17
2023-03-27T04:15:15.669Z,17
2023-03-27T04:21:22.267Z,16.9
2023-03-27T04:27:28.026Z,16.9
2023-03-27T04:33:34.008Z,16.9
2023-03-27T04:39:39.775Z,16.9
2023-03-27T04:45:45.983Z,16.9
2023-03-27T04:51:51.387Z,16.9
2023-03-27T04:57:56.477Z,17
2023-03-27T05:04:01.728Z,17.1
2023-03-27T05:10:07.637Z,17.4
2023-03-27T05:16:13.425Z,17.5
2023-03-27T05:22:19.819Z,17.6
2023-03-27T05:28:25.169Z,17.7
2023-03-27T05:34:30.391Z,17.7
2023-03-27T05:40:35.752Z,17.6
2023-03-27T05:46:41.096Z,17.6
2023-03-27T05:52:47.305Z,17.6
2023-03-27T05:58:52.470Z,17.6
2023-03-27T06:04:57.778Z,17.6
2023-03-27T06:11:03.554Z,17.6
2023-03-27T06:17:08.734Z,17.6
2023-03-27T06:23:14.714Z,17.6
2023-03-27T06:29:20.144Z,17.5
2023-03-27T06:35:25.225Z,17.5
2023-03-27T06:41:30.621Z,17.5
2023-03-27T06:47:41.580Z,17.4
2023-03-27T06:53:57.947Z,17.4
2023-03-27T07:00:03.309Z,17.4
2023-03-27T07:06:08.534Z,17.4
2023-03-27T07:12:13.568Z,17.4
2023-03-27T07:18:18.912Z,17.3
2023-03-27T07:24:24.618Z,17.3
2023-03-27T07:30:30.605Z,17.3
2023-03-27T07:36:35.961Z,17.3
2023-03-27T07:42:41.563Z,17.3
2023-03-27T07:48:47.315Z,17.3
2023-03-27T07:54:52.696Z,17.3
2023-03-27T08:00:58.257Z,17.3
2023-03-27T08:07:04.004Z,17.3
2023-03-27T08:13:09.209Z,17.3
2023-03-27T08:19:14.752Z,17.3
2023-03-27T08:25:20.513Z,17.4
2023-03-27T08:31:26.000Z,17.4
2023-03-27T08:37:32.054Z,17.5
2023-03-27T08:43:37.826Z,17.5
2023-03-27T08:49:43.595Z,17.5
2023-03-27T08:55:49.189Z,17.4
2023-03-27T09:01:54.979Z,17.4
2023-03-27T09:08:00.717Z,17.4
2023-03-27T09:14:06.517Z,17.4
2023-03-27T09:20:12.548Z,17.4
2023-03-27T09:26:18.048Z,17.4
2023-03-27T09:32:23.451Z,17.4
2023-03-27T09:38:36.419Z,17.4
2023-03-27T09:44:42.148Z,17.3
2023-03-27T09:50:47.772Z,17.4
2023-03-27T09:56:53.529Z,17.4
2023-03-27T10:02:59.297Z,17.4
2023-03-27T10:09:04.865Z,17.4
2023-03-27T10:15:10.618Z,17.5
2023-03-27T10:21:16.397Z,17.5
2023-03-27T10:27:21.643Z,17.6
2023-03-27T10:33:26.942Z,17.5
2023-03-27T10:39:32.168Z,17.5
2023-03-27T10:45:37.885Z,17.5
2023-03-27T10:51:46.698Z,17.5
2023-03-27T10:57:52.699Z,17.6
2023-03-27T11:03:58.722Z,17.5
2023-03-27T11:10:04.890Z,17.5
2023-03-27T11:16:09.894Z,17.5
2023-03-27T11:22:15.257Z,17.5
2023-03-27T11:28:21.190Z,17.6
2023-03-27T11:34:28.709Z,17.6
2023-03-27T11:40:35.395Z,17.6
2023-03-27T11:46:42.108Z,17.4
2023-03-27T11:52:47.982Z,17.4
2023-03-27T11:58:53.547Z,17.5
2023-03-27T12:04:59.600Z,17.5
2023-03-27T12:11:05.513Z,17.4
2023-03-27T12:17:10.954Z,17.5
2023-03-27T12:23:17.073Z,17.5
2023-03-27T12:29:24.311Z,17.5
2023-03-27T12:35:30.536Z,17.5
2023-03-27T12:41:36.671Z,17.5
2023-03-27T12:47:42.864Z,17.5
2023-03-27T12:53:48.851Z,17.5
2023-03-27T12:59:54.400Z,17.5
2023-03-27T13:06:00.372Z,17.4
2023-03-27T13:12:06.158Z,17.5
2023-03-27T13:18:12.012Z,17.5
2023-03-27T13:24:17.711Z,17.4
2023-03-27T13:30:23.268Z,17.5
2023-03-27T13:36:28.895Z,17.5
2023-03-27T13:42:34.285Z,17.5
2023-03-27T13:48:39.605Z,17.5
2023-03-27T13:54:45.790Z,17.4
2023-03-27T14:00:51.423Z,17.4
2023-03-27T14:06:57.138Z,17.4
2023-03-27T14:13:03.518Z,17.4
2023-03-27T14:19:09.572Z,17.4
2023-03-27T14:25:15.268Z,17.4
2023-03-27T14:31:21.147Z,17.3
2023-03-27T14:37:26.672Z,17.3
2023-03-27T14:43:32.399Z,17.3
2023-03-27T14:49:38.037Z,17.3
2023-03-27T14:55:43.148Z,17.2
2023-03-27T15:01:49.118Z,17.3
2023-03-27T15:07:54.900Z,17.2
2023-03-27T15:14:00.701Z,17.3
2023-03-27T15:20:05.886Z,17.4
2023-03-27T15:26:11.619Z,17.5
2023-03-27T15:32:17.604Z,17.7
2023-03-27T15:38:22.752Z,17.8
2023-03-27T15:44:28.625Z,17.8
2023-03-27T15:50:34.522Z,17.8
2023-03-27T15:56:40.547Z,17.9
2023-03-27T16:02:46.998Z,17.8
2023-03-27T16:08:53.074Z,17.8
2023-03-27T16:14:59.198Z,17.9
2023-03-27T16:21:08.541Z,17.8
2023-03-27T16:27:14.505Z,17.8
2023-03-27T16:33:19.897Z,17.7
2023-03-27T16:39:26.134Z,17.7
2023-03-27T16:45:32.276Z,17.6
2023-03-27T16:51:38.019Z,17.6
2023-03-27T16:57:44.055Z,17.6
2023-03-27T17:03:49.435Z,17.6
2023-03-27T17:09:54.969Z,17.6
2023-03-27T17:16:00.956Z,17.5
2023-03-27T17:22:06.707Z,17.5
2023-03-27T17:28:12.273Z,17.5
2023-03-27T17:34:18.354Z,17.4
2023-03-27T17:40:24.033Z,17.4
2023-03-27T17:46:30.053Z,17.4
2023-03-27T17:52:36.472Z,17.4
2023-03-27T17:58:42.010Z,17.4
2023-03-27T18:04:47.961Z,17.4
2023-03-27T18:10:53.759Z,17.4
2023-03-27T18:16:59.951Z,17.4
2023-03-27T18:23:05.725Z,17.5
2023-03-27T18:29:11.683Z,17.5
2023-03-27T18:35:17.057Z,17.5
2023-03-27T18:41:22.911Z,17.5
2023-03-27T18:47:28.444Z,17.5
2023-03-27T18:53:35.201Z,17.5
2023-03-27T18:59:41.011Z,17.5
2023-03-27T19:05:46.947Z,17.5
2023-03-27T19:11:52.351Z,17.5
2023-03-27T19:17:58.345Z,17.5
2023-03-27T19:24:04.099Z,17.5
2023-03-27T19:30:09.894Z,17.4
2023-03-27T19:36:15.676Z,17.4
2023-03-27T19:42:21.623Z,17.4
2023-03-27T19:48:27.202Z,17.4
2023-03-27T19:54:32.586Z,17.4
2023-03-27T20:00:37.613Z,17.3
2023-03-27T20:06:42.967Z,17.3
2023-03-27T20:12:48.111Z,17.3
2023-03-27T20:18:53.435Z,17.3
2023-03-27T20:24:59.189Z,17.3
2023-03-27T20:31:05.221Z,17.3
2023-03-27T20:37:11.178Z,17.3
2023-03-27T20:43:16.698Z,17.3
2023-03-27T20:49:30.407Z,17.2
2023-03-27T20:55:53.308Z,17.3
2023-03-27T21:02:04.830Z,17.3
2023-03-27T21:08:09.954Z,17.3
2023-03-27T21:14:15.349Z,17.3
2023-03-27T21:20:21.117Z,17.3
2023-03-27T21:26:26.711Z,17.2
2023-03-27T21:32:32.088Z,17.2
2023-03-27T21:38:36.855Z,17.2
2023-03-27T21:44:42.434Z,17.2
2023-03-27T21:50:53.306Z,17.2
2023-03-27T21:56:59.125Z,17.2
2023-03-27T22:03:04.716Z,17.1
2023-03-27T22:09:15.567Z,17.1
2023-03-27T22:15:21.172Z,17.1
2023-03-27T22:46:40.248Z,17.1
2023-03-27T22:52:46.341Z,17
2023-03-27T22:58:52.574Z,17
2023-03-27T23:04:57.731Z,17
2023-03-27T23:11:03.335Z,17
2023-03-27T23:17:09.077Z,17
2023-03-27T23:23:15.236Z,17
2023-03-27T23:29:37.585Z,16.9
2023-03-27T23:35:43.834Z,16.9
2023-03-27T23:41:49.358Z,16.9
2023-03-27T23:47:55.199Z,16.9
2023-03-27T23:54:00.957Z,16.9
